• Join FlightAware (Why Join?)
  • Login
  • US Flag 
04:05AM EDT


 

Airport Tracker/Info


-or-


 

Live Flight TrackerFlight Track Log ✈ KAP927 ✈ 31-May-2013 ✈ KOGS - KALB

Flight Track Log - Related Links

Times and Time Zones

All times are in EDT time to prevent confusion due to time zone crossing. See the KAP927 flight status page for this flight to view local times or setup timezone preferences in your user account.

Time Position Orientation Groundspeed Altitude Reporting Facility
EDT Latitude Longitude Course Direction KTS MPH feet Rate Location/Type
08:32AM 44.4292 -75.2542 149° Southeast 155 178 4,900  Level Boston Center
08:33AM 44.3942 -75.2264 150° Southeast 150 173 5,400 420 Climbing Boston Center
08:34AM 44.3594 -75.1986 150° Southeast 145 167 5,800 480 Climbing Boston Center
08:35AM 44.3247 -75.1708 150° Southeast 145 167 6,400 540 Climbing Boston Center
08:36AM 44.4902 -75.2947 149° Southeast  Level Estimated
08:36AM 44.2922 -75.1375 144° Southeast 145 167 6,900  Level Boston Center
08:37AM 44.2597 -75.1042 144° Southeast 145 167 7,400 300 Climbing Boston Center
08:38AM 44.2208 -75.0733 150° Southeast 151 174 7,500  Climbing Boston Center
08:39AM 44.1778 -75.0367 149° Southeast 164 189 7,500  Level Boston Center
08:40AM 44.1328 -75.0000 150° Southeast 174 200 7,500  Level Boston Center
08:41AM 44.0961 -74.9639 145° Southeast 179 206 7,500  Level Boston Center
08:42AM 44.0531 -74.9303 151° Southeast 179 206 7,500  Level Boston Center
08:43AM 44.0206 -74.8972 144° Southeast 179 206 7,500  Level Boston Center
08:44AM 43.9714 -74.8547 148° Southeast 179 206 7,500  Level Boston Center
08:45AM 43.9303 -74.8214 150° Southeast 179 206 7,500  Level Boston Center
08:46AM 43.8894 -74.7853 147° Southeast 179 206 7,600  Climbing Boston Center
08:47AM 43.8483 -74.7489 147° Southeast 179 206 7,600  Level Boston Center
08:48AM 43.8094 -74.7131 146° Southeast 179 206 7,600  Level Boston Center
08:49AM 43.7664 -74.6797 151° Southeast 179 206 7,600  Level Boston Center
08:50AM 43.7256 -74.6408 145° Southeast 179 206 7,600  Level Boston Center
08:51AM 43.6886 -74.6108 150° Southeast 179 206 7,600  Level Boston Center
08:52AM 43.6475 -74.5747 148° Southeast 179 206 7,600  Level Boston Center
08:53AM 43.6067 -74.5389 148° Southeast 179 206 7,600  Level Boston Center
08:54AM 43.5675 -74.5033 147° Southeast 179 206 7,600  Level Boston Center
08:55AM 43.5267 -74.4675 148° Southeast 179 206 7,600  Level Boston Center
08:56AM 43.4833 -74.4347 151° Southeast 179 206 7,600  Level Boston Center
08:57AM 43.4444 -74.3989 146° Southeast 179 206 7,600  Level Boston Center
08:57AM 43.4258 -74.3842 150° Southeast 174 200 7,600  Level Boston Center
08:58AM 43.4033 -74.3633 146° Southeast 179 206 7,600  Level Boston Center
08:58AM 43.3889 -74.3486 143° Southeast 174 200 7,600  Level Boston Center
08:59AM 43.3622 -74.3250 147° Southeast 179 206 7,600  Level Boston Center
08:59AM 43.3436 -74.3158 160° South 176 203 7,600 -240 Level Boston Center
09:00AM 43.3150 -74.2864 143° Southeast 179 206 7,400 -300 Descending Boston Center
09:00AM 43.3047 -74.2803 157° South 180 207 7,300 -420 Descending Boston Center
09:01AM 43.2758 -74.2539 146° Southeast 184 212 7,000 -540 Descending Boston Center
09:01AM 43.2575 -74.2389 149° Southeast 195 224 6,800 -540 Descending Boston Center
09:02AM 43.2244 -74.2094 147° Southeast 184 212 6,500 -540 Descending Boston Center
09:02AM 43.2081 -74.2006 158° South 194 223 6,300 -420 Descending Boston Center
09:03AM 43.1833 -74.1742 142° Southeast 184 212 6,100 -540 Descending Boston Center
09:03AM 43.1628 -74.1564 148° Southeast 194 223 5,800 -600 Descending Boston Center
09:04AM 43.1339 -74.1272 144° Southeast 189 217 5,500 -540 Descending Boston Center
09:04AM 43.1175 -74.1183 158° South 195 224 5,300 -420 Descending Boston Center
09:05AM 43.0928 -74.0947 145° Southeast 189 217 5,100 -540 Descending Boston Center
09:05AM 43.0703 -74.0772 150° Southeast 195 224 4,800 -600 Descending Boston Center
09:06AM 43.0414 -74.0508 146° Southeast 189 217 4,500 -540 Descending Boston Center
09:06AM 43.0269 -74.0419 156° South 193 222 4,300 -540 Descending Boston Center
09:07AM 43.0022 -74.0186 145° Southeast 189 217 4,000 -540 Descending Boston Center
09:07AM 42.9817 -74.0039 152° Southeast 193 222 3,800 -420 Descending Boston Center
09:08AM 42.9506 -73.9747 146° Southeast 189 217 3,600 -300 Descending Boston Center
09:08AM 42.9342 -73.9631 152° Southeast 190 219 3,500 -120 Descending Boston Center
09:09AM 42.9136 -73.9425 144° Southeast 189 217 3,500  Level Boston Center
09:09AM 42.8931 -73.9250 148° Southeast 174 200 3,500  Level Boston Center
09:10AM 42.8683 -73.9047 149° Southeast 183 211 3,500 60 Level Boston Center
09:10AM 42.8517 -73.8958 159° South 169 194 3,600  Climbing Boston Center
09:11AM 42.8308 -73.8867 162° South 168 193 3,500 -120 Descending Boston Center
09:11AM 42.8081 -73.8806 169° South 162 186 3,500 -240 Level Boston Center
09:12AM 42.7875 -73.8717 162° South 163 188 3,300 -720 Descending Boston Center
09:12AM 42.7606 -73.8597 162° South 173 199 2,800 -840 Descending Boston Center
09:13AM 42.7128 -73.8417 164° South 166 191 2,100 -900 Descending Boston Center
09:15AM 42.7194 -73.8078 75° East 130 150 1,000 -1,140 Descending Boston Center
09:16AM 42.7491 -73.8020 22° Northeast  Level Estimated
09:23AM 42.7491 -73.8020 160° South  Level Estimated
09:24AM 42.7491 -73.8020 160° South  Level Estimated
09:25AM 42.7491 -73.8020 160° South  Level Estimated
09:26AM 42.7491 -73.8020 160° South  Level Estimated